createdAt,value
2023-02-11T00:01:21.890Z,21.30
2023-02-11T00:03:50.055Z,18.65
2023-02-11T00:06:19.676Z,18.17
2023-02-11T00:08:48.040Z,16.70
2023-02-11T00:11:19.937Z,16.95
2023-02-11T00:13:48.517Z,15.32
2023-02-11T00:16:18.078Z,19.80
2023-02-11T00:18:47.025Z,17.30
2023-02-11T00:21:17.353Z,16.35
2023-02-11T00:23:45.986Z,19.25
2023-02-11T00:26:14.566Z,19.05
2023-02-11T00:28:45.920Z,18.67
2023-02-11T00:31:15.495Z,19.10
2023-02-11T00:33:44.692Z,18.00
2023-02-11T00:36:16.812Z,16.20
2023-02-11T00:38:50.013Z,16.20
2023-02-11T00:41:19.232Z,15.65
2023-02-11T00:43:49.629Z,17.88
2023-02-11T00:46:20.856Z,17.38
2023-02-11T00:48:49.370Z,17.23
2023-02-11T00:51:17.325Z,18.67
2023-02-11T00:53:45.691Z,19.20
2023-02-11T00:56:14.065Z,19.30
2023-02-11T00:58:42.758Z,15.80
2023-02-11T01:01:13.351Z,19.00
2023-02-11T01:03:41.754Z,20.63
2023-02-11T01:06:10.674Z,15.75
2023-02-11T01:08:40.014Z,17.95
2023-02-11T01:11:14.602Z,17.27
2023-02-11T01:13:43.537Z,17.25
2023-02-11T01:16:13.129Z,15.50
2023-02-11T01:18:41.969Z,16.85
2023-02-11T01:21:11.149Z,16.77
2023-02-11T01:23:39.077Z,16.30
2023-02-11T01:26:07.109Z,14.45
2023-02-11T01:28:35.176Z,16.55
2023-02-11T01:31:04.088Z,17.33
2023-02-11T01:33:35.666Z,15.73
2023-02-11T01:36:04.442Z,17.58
2023-02-11T01:38:33.762Z,17.10
2023-02-11T01:41:04.583Z,17.60
2023-02-11T01:43:37.019Z,15.55
2023-02-11T01:46:24.690Z,17.13
2023-02-11T01:48:57.197Z,15.65
2023-02-11T01:51:28.669Z,15.77
2023-02-11T01:54:16.472Z,15.88
2023-02-11T01:57:07.302Z,14.43
2023-02-11T01:59:42.037Z,16.27
2023-02-11T02:02:13.976Z,16.20
2023-02-11T02:04:50.104Z,14.85
2023-02-11T02:07:26.140Z,16.45
2023-02-11T02:10:02.202Z,13.73
2023-02-11T02:12:30.548Z,15.93
2023-02-11T02:15:24.859Z,16.10
2023-02-11T02:18:01.933Z,14.45
2023-02-11T02:21:12.429Z,15.32
2023-02-11T02:23:52.832Z,17.45
2023-02-11T02:27:01.477Z,14.55
2023-02-11T02:30:02.018Z,16.45
2023-02-11T02:33:21.424Z,17.02
2023-02-11T02:35:57.996Z,13.70
2023-02-11T02:38:30.550Z,16.75
2023-02-11T02:41:03.445Z,15.48
2023-02-11T02:43:32.656Z,16.13
2023-02-11T02:46:16.132Z,15.57
2023-02-11T02:48:45.686Z,14.88
2023-02-11T02:51:35.217Z,17.58
2023-02-11T02:54:29.474Z,14.70
2023-02-11T02:57:06.408Z,14.15
2023-02-11T02:59:49.969Z,14.85
2023-02-11T03:02:26.012Z,16.00
2023-02-11T03:05:01.300Z,14.30
2023-02-11T03:07:39.105Z,14.13
2023-02-11T03:10:10.489Z,14.65
2023-02-11T03:12:39.808Z,16.60
2023-02-11T03:15:09.462Z,14.95
2023-02-11T03:17:40.446Z,16.58
2023-02-11T03:20:14.441Z,15.45
2023-02-11T03:22:49.441Z,17.73
2023-02-11T03:25:18.205Z,13.48
2023-02-11T03:27:53.344Z,14.65
2023-02-11T03:30:25.998Z,15.38
2023-02-11T03:32:59.286Z,17.25
2023-02-11T03:35:32.972Z,16.48
2023-02-11T03:38:07.143Z,17.73
2023-02-11T03:40:39.442Z,18.13
2023-02-11T03:43:11.327Z,16.63
2023-02-11T03:45:40.701Z,15.38
2023-02-11T03:48:15.700Z,14.95
2023-02-11T03:50:46.760Z,18.17
2023-02-11T03:53:17.309Z,17.60
2023-02-11T03:55:47.430Z,16.38
2023-02-11T03:58:15.527Z,17.48
2023-02-11T04:00:44.818Z,16.15
2023-02-11T04:03:14.060Z,15.48
2023-02-11T04:05:42.355Z,16.80
2023-02-11T04:08:10.875Z,17.40
2023-02-11T04:10:40.508Z,17.70
2023-02-11T04:13:08.961Z,16.25
2023-02-11T04:15:37.868Z,17.27
2023-02-11T04:18:05.914Z,16.88
2023-02-11T04:20:33.880Z,19.90
2023-02-11T04:23:02.303Z,16.48
2023-02-11T04:25:30.637Z,16.88
2023-02-11T04:28:00.461Z,19.88
2023-02-11T04:30:28.594Z,17.33
2023-02-11T04:32:56.641Z,17.70
2023-02-11T04:35:24.700Z,16.85
2023-02-11T04:37:52.795Z,16.15
2023-02-11T04:40:21.426Z,19.25
2023-02-11T04:42:49.334Z,18.20
2023-02-11T04:45:19.364Z,20.50
2023-02-11T04:47:47.605Z,18.98
2023-02-11T04:50:16.018Z,18.95
2023-02-11T04:52:44.102Z,18.98
2023-02-11T04:55:13.249Z,19.90
2023-02-11T04:57:41.248Z,18.52
2023-02-11T05:00:11.381Z,20.33
2023-02-11T05:02:41.220Z,21.42
2023-02-11T05:05:09.616Z,18.75
2023-02-11T05:07:38.173Z,18.48
2023-02-11T05:10:06.411Z,20.33
2023-02-11T05:12:34.388Z,20.65
2023-02-11T05:15:02.509Z,22.90
2023-02-11T05:17:30.618Z,20.98
2023-02-11T05:20:00.291Z,21.55
2023-02-11T05:22:28.417Z,23.42
2023-02-11T05:24:56.621Z,20.35
2023-02-11T05:27:24.743Z,22.42
2023-02-11T05:29:52.756Z,21.80
2023-02-11T05:32:20.832Z,20.80
2023-02-11T05:34:48.878Z,21.13
2023-02-11T05:37:18.702Z,22.52
2023-02-11T05:39:46.880Z,20.88
2023-02-11T05:42:15.489Z,22.88
2023-02-11T05:44:43.949Z,25.55
2023-02-11T05:47:12.040Z,21.33
2023-02-11T05:49:40.250Z,20.58
2023-02-11T05:52:08.547Z,19.35
2023-02-11T05:54:38.506Z,23.80
2023-02-11T05:57:06.604Z,24.25
2023-02-11T05:59:34.685Z,24.88
2023-02-11T06:02:03.487Z,26.33
2023-02-11T06:04:31.517Z,22.70
2023-02-11T06:06:59.925Z,23.50
2023-02-11T06:09:28.498Z,21.83
2023-02-11T06:11:58.103Z,24.52
2023-02-11T06:14:26.591Z,23.40
2023-02-11T06:16:55.002Z,23.63
2023-02-11T06:19:23.167Z,27.92
2023-02-11T06:21:51.413Z,24.45
2023-02-11T06:24:38.347Z,26.30
2023-02-11T06:27:09.678Z,26.77
2023-02-11T06:29:37.820Z,26.63
2023-02-11T06:32:06.211Z,27.17
2023-02-11T06:34:34.364Z,28.77
2023-02-11T06:37:02.915Z,26.88
2023-02-11T06:39:31.193Z,24.65
2023-02-11T06:42:00.112Z,24.67
2023-02-11T06:44:30.015Z,24.35
2023-02-11T06:46:58.077Z,28.17
2023-02-11T06:49:26.233Z,27.35
2023-02-11T06:51:54.385Z,27.77
2023-02-11T06:54:22.646Z,30.58
2023-02-11T06:56:51.089Z,32.63
2023-02-11T06:59:20.643Z,29.98
2023-02-11T07:01:50.562Z,28.13
2023-02-11T07:04:19.674Z,28.77
2023-02-11T07:06:47.883Z,33.25
2023-02-11T07:09:16.196Z,29.20
2023-02-11T07:11:44.328Z,34.05
2023-02-11T07:14:13.462Z,30.40
2023-02-11T07:16:41.795Z,29.05
2023-02-11T07:19:12.445Z,28.15
2023-02-11T07:21:40.954Z,31.50
2023-02-11T07:24:11.283Z,32.05
2023-02-11T07:26:40.335Z,32.40
2023-02-11T07:29:08.595Z,33.28
2023-02-11T07:31:36.980Z,31.90
2023-02-11T07:34:05.463Z,31.25
2023-02-11T07:36:35.584Z,33.42
2023-02-11T07:39:04.402Z,36.95
2023-02-11T07:41:32.539Z,33.45
2023-02-11T07:44:00.758Z,33.88
2023-02-11T07:46:29.388Z,31.05
2023-02-11T07:48:57.820Z,35.20
2023-02-11T07:51:27.891Z,32.40
2023-02-11T07:53:59.854Z,34.30
2023-02-11T07:56:29.925Z,35.08
2023-02-11T07:59:03.792Z,28.88
2023-02-11T08:01:32.531Z,29.70
2023-02-11T08:04:02.239Z,29.55
2023-02-11T08:06:32.776Z,33.75
2023-02-11T08:09:09.019Z,33.35
2023-02-11T08:11:37.616Z,26.58
2023-02-11T08:14:06.033Z,30.83
2023-02-11T08:16:36.559Z,32.40
2023-02-11T08:19:06.921Z,31.60
2023-02-11T08:21:35.636Z,29.80
2023-02-11T08:24:05.872Z,28.52
2023-02-11T08:26:35.245Z,28.80
2023-02-11T08:29:07.718Z,29.15
2023-02-11T08:31:38.299Z,31.77
2023-02-11T08:34:06.762Z,31.45
2023-02-11T08:36:37.830Z,27.48
2023-02-11T08:39:18.582Z,27.48
2023-02-11T08:41:49.653Z,29.63
2023-02-11T08:44:18.531Z,28.05
2023-02-11T08:46:47.399Z,28.20
2023-02-11T08:49:16.130Z,28.35
2023-02-11T08:51:44.743Z,27.00
2023-02-11T08:54:15.815Z,27.05
2023-02-11T08:56:44.969Z,27.67
2023-02-11T08:59:17.910Z,26.45
2023-02-11T09:01:47.354Z,30.40
2023-02-11T09:04:16.031Z,27.95
2023-02-11T09:06:44.434Z,30.33
2023-02-11T09:09:15.196Z,27.80
2023-02-11T09:11:45.175Z,24.88
2023-02-11T09:14:19.686Z,24.00
2023-02-11T09:16:49.005Z,25.45
2023-02-11T09:19:18.039Z,24.83
2023-02-11T09:21:46.768Z,24.85
2023-02-11T09:24:16.503Z,26.17
2023-02-11T09:26:45.166Z,26.80
2023-02-11T09:29:14.010Z,25.60
2023-02-11T09:31:42.769Z,27.42
2023-02-11T09:34:12.210Z,25.48
2023-02-11T09:36:41.760Z,27.15
2023-02-11T09:39:13.858Z,26.52
2023-02-11T09:42:12.656Z,25.83
2023-02-11T09:44:46.632Z,25.73
2023-02-11T09:47:27.995Z,31.95
2023-02-11T09:50:01.252Z,30.40
2023-02-11T09:52:38.097Z,27.38
2023-02-11T09:55:18.746Z,28.75
2023-02-11T09:57:47.341Z,30.20
2023-02-11T10:00:27.405Z,26.38
2023-02-11T10:03:07.769Z,30.52
2023-02-11T10:05:50.464Z,30.30
2023-02-11T10:08:28.737Z,31.33
2023-02-11T10:11:02.849Z,29.95
2023-02-11T10:13:51.168Z,27.27
2023-02-11T10:16:49.922Z,30.17
2023-02-11T10:19:35.903Z,30.75
2023-02-11T10:22:11.962Z,27.00
2023-02-11T10:24:43.810Z,29.52
2023-02-11T10:27:18.572Z,28.13
2023-02-11T10:29:53.887Z,32.40
2023-02-11T10:32:35.099Z,29.52
2023-02-11T10:35:12.684Z,28.95
2023-02-11T10:37:42.961Z,25.75
2023-02-11T10:40:16.048Z,27.00
2023-02-11T10:42:48.914Z,29.02
2023-02-11T10:45:23.562Z,27.50
2023-02-11T10:47:55.291Z,27.88
2023-02-11T10:50:27.136Z,29.92
2023-02-11T10:53:13.331Z,28.23
2023-02-11T10:55:53.687Z,27.77
2023-02-11T10:58:29.197Z,26.75
2023-02-11T11:01:00.388Z,27.00
2023-02-11T11:03:35.681Z,29.73
2023-02-11T11:06:06.987Z,28.17
2023-02-11T11:08:43.036Z,29.38
2023-02-11T11:11:13.505Z,27.25
2023-02-11T11:13:43.546Z,28.60
2023-02-11T11:16:22.731Z,26.30
2023-02-11T11:18:54.611Z,26.70
2023-02-11T11:21:28.042Z,27.85
2023-02-11T11:23:59.174Z,26.83
2023-02-11T11:26:30.105Z,26.40
2023-02-11T11:29:02.706Z,28.02
2023-02-11T11:31:34.688Z,29.15
2023-02-11T11:34:22.575Z,28.20
2023-02-11T11:36:51.782Z,26.27
2023-02-11T11:39:24.533Z,27.98
2023-02-11T11:41:55.905Z,27.70
2023-02-11T11:44:30.944Z,29.48
2023-02-11T11:47:26.187Z,27.05
2023-02-11T11:50:13.246Z,25.48
2023-02-11T11:52:45.700Z,27.05
2023-02-11T11:55:19.879Z,29.25
2023-02-11T11:57:50.068Z,24.50
2023-02-11T12:00:21.223Z,26.15
2023-02-11T12:03:34.434Z,24.55
2023-02-11T12:06:18.497Z,25.00
2023-02-11T12:08:59.482Z,24.35
2023-02-11T12:11:36.484Z,25.20
2023-02-11T12:14:21.611Z,28.55
2023-02-11T12:16:58.515Z,26.10
2023-02-11T12:20:01.057Z,26.45
2023-02-11T12:22:46.439Z,23.40
2023-02-11T12:25:26.271Z,27.15
2023-02-11T12:28:01.912Z,24.17
2023-02-11T12:30:44.610Z,26.02
2023-02-11T12:33:23.742Z,25.90
2023-02-11T12:36:01.220Z,24.92
2023-02-11T12:38:47.994Z,22.90
2023-02-11T12:41:42.084Z,26.77
2023-02-11T12:44:24.674Z,23.77
2023-02-11T12:47:03.686Z,24.92
2023-02-11T12:49:54.596Z,29.10
2023-02-11T12:52:35.892Z,23.20
2023-02-11T12:55:18.239Z,26.05
2023-02-11T12:57:49.685Z,25.65
2023-02-11T13:00:20.683Z,24.40
2023-02-11T13:02:57.729Z,27.50
2023-02-11T13:05:30.234Z,30.27
2023-02-11T13:08:06.238Z,23.80
2023-02-11T13:10:38.763Z,25.42
2023-02-11T13:13:19.600Z,23.35
2023-02-11T13:15:55.191Z,25.75
2023-02-11T13:18:37.280Z,24.45
2023-02-11T13:21:23.493Z,24.27
2023-02-11T13:24:00.097Z,28.40
2023-02-11T13:26:37.339Z,23.17
2023-02-11T13:29:17.401Z,26.55
2023-02-11T13:31:54.612Z,26.65
2023-02-11T13:34:47.490Z,25.27
2023-02-11T13:37:23.173Z,23.33
2023-02-11T13:39:58.385Z,25.98
2023-02-11T13:42:29.027Z,27.02
2023-02-11T13:44:57.930Z,25.88
2023-02-11T13:47:31.989Z,25.95
2023-02-11T13:50:01.656Z,27.52
2023-02-11T13:52:32.765Z,24.58
2023-02-11T13:55:11.063Z,25.13
2023-02-11T13:57:42.600Z,25.88
2023-02-11T14:00:50.199Z,24.75
2023-02-11T14:03:46.328Z,27.17
2023-02-11T14:06:41.523Z,29.90
2023-02-11T14:09:39.239Z,27.90
2023-02-11T14:12:36.233Z,27.70
2023-02-11T14:15:42.544Z,26.27
2023-02-11T14:18:37.975Z,27.70
2023-02-11T14:21:13.611Z,26.95
2023-02-11T14:23:43.726Z,28.98
2023-02-11T14:26:30.094Z,27.30
2023-02-11T14:29:04.997Z,24.98
2023-02-11T14:31:43.198Z,30.35
2023-02-11T14:34:40.877Z,27.23
2023-02-11T14:37:30.584Z,27.17
2023-02-11T14:40:07.634Z,25.63
2023-02-11T14:42:39.038Z,24.60
2023-02-11T14:45:11.180Z,27.13
2023-02-11T14:47:46.587Z,26.90
2023-02-11T14:50:19.408Z,32.53
2023-02-11T14:52:48.651Z,28.70
2023-02-11T14:55:29.379Z,25.75
2023-02-11T14:58:13.996Z,25.85
2023-02-11T15:00:51.421Z,25.08
2023-02-11T15:03:36.717Z,27.35
2023-02-11T15:06:08.425Z,24.90
2023-02-11T15:08:39.823Z,26.98
2023-02-11T15:11:13.493Z,25.77
2023-02-11T15:13:48.312Z,26.80
2023-02-11T15:16:19.583Z,28.02
2023-02-11T15:18:54.365Z,27.75
2023-02-11T15:21:25.296Z,25.35
2023-02-11T15:23:58.991Z,26.83
2023-02-11T15:26:27.773Z,27.00
2023-02-11T15:28:56.396Z,30.13
2023-02-11T15:31:27.113Z,28.63
2023-02-11T15:33:57.077Z,25.83
2023-02-11T15:36:33.617Z,24.00
2023-02-11T15:39:20.210Z,25.75
2023-02-11T15:41:48.959Z,26.58
2023-02-11T15:44:31.688Z,25.38
2023-02-11T15:47:00.697Z,25.17
2023-02-11T15:49:31.310Z,27.70
2023-02-11T15:52:00.122Z,26.58
2023-02-11T15:54:31.874Z,30.00
2023-02-11T15:57:06.478Z,27.85
2023-02-11T15:59:39.063Z,27.25
2023-02-11T16:02:10.039Z,26.50
2023-02-11T16:04:40.208Z,26.02
2023-02-11T16:07:37.396Z,28.20
2023-02-11T16:10:06.373Z,25.48
2023-02-11T16:12:34.990Z,26.48
2023-02-11T16:15:31.493Z,26.92
2023-02-11T16:18:00.034Z,27.27
2023-02-11T16:20:29.824Z,27.73
2023-02-11T16:22:58.330Z,27.98
2023-02-11T16:25:26.971Z,25.77
2023-02-11T16:27:55.862Z,26.38
2023-02-11T16:30:30.835Z,24.65
2023-02-11T16:32:58.948Z,25.08
2023-02-11T16:35:27.522Z,26.33
2023-02-11T16:37:57.764Z,25.20
2023-02-11T16:40:26.205Z,25.83
2023-02-11T16:42:54.601Z,24.15
2023-02-11T16:45:23.160Z,26.23
2023-02-11T16:47:51.351Z,25.45
2023-02-11T16:50:25.071Z,22.13
2023-02-11T16:52:54.189Z,24.73
2023-02-11T16:55:24.086Z,23.17
2023-02-11T16:57:52.806Z,22.50
2023-02-11T17:00:21.977Z,23.65
2023-02-11T17:02:50.136Z,22.80
2023-02-11T17:05:23.070Z,22.80
2023-02-11T17:07:51.493Z,21.90
2023-02-11T17:10:21.900Z,23.02
2023-02-11T17:12:53.470Z,21.15
2023-02-11T17:15:21.910Z,20.75
2023-02-11T17:17:50.361Z,18.15
2023-02-11T17:20:19.170Z,19.20
2023-02-11T17:22:48.046Z,18.15
2023-02-11T17:25:16.295Z,17.33
2023-02-11T17:27:44.286Z,18.40
2023-02-11T17:30:15.347Z,18.90
2023-02-11T17:32:43.737Z,18.23
2023-02-11T17:35:12.832Z,18.25
2023-02-11T17:37:40.996Z,17.83
2023-02-11T17:40:10.606Z,16.98
2023-02-11T17:42:40.215Z,16.60
2023-02-11T17:49:35.565Z,16.73
2023-02-11T17:52:04.334Z,17.20
2023-02-11T17:54:33.378Z,15.20
2023-02-11T17:57:02.324Z,16.70
2023-02-11T17:59:35.824Z,14.00
2023-02-11T18:02:04.122Z,17.17
2023-02-11T18:04:33.984Z,15.80
2023-02-11T18:07:02.480Z,13.95
2023-02-11T18:09:30.415Z,14.95
2023-02-11T18:11:59.012Z,15.70
2023-02-11T18:14:27.178Z,14.60
2023-02-11T18:16:55.567Z,15.00
2023-02-11T18:19:23.972Z,13.60
2023-02-11T18:21:53.455Z,13.88
2023-02-11T18:24:32.621Z,13.95
2023-02-11T18:27:00.826Z,13.73
2023-02-11T18:29:28.984Z,10.77
2023-02-11T18:31:58.267Z,12.55
2023-02-11T18:34:26.861Z,11.45
2023-02-11T18:36:57.145Z,13.10
2023-02-11T18:39:26.669Z,12.60
2023-02-11T18:41:56.881Z,11.90
2023-02-11T18:44:24.969Z,11.48
2023-02-11T18:46:53.555Z,12.68
2023-02-11T18:49:21.896Z,12.70
2023-02-11T18:51:50.337Z,11.10
2023-02-11T18:54:20.040Z,10.20
2023-02-11T18:56:48.383Z,11.55
2023-02-11T18:59:16.592Z,10.70
2023-02-11T19:01:46.933Z,11.10
2023-02-11T19:04:19.713Z,10.05
2023-02-11T19:06:50.002Z,11.60
2023-02-11T19:09:21.126Z,9.55
2023-02-11T19:12:02.453Z,10.45
2023-02-11T19:14:33.591Z,11.85
2023-02-11T19:17:04.392Z,11.07
2023-02-11T19:19:34.807Z,10.90
2023-02-11T19:22:09.175Z,9.95
2023-02-11T19:24:40.152Z,12.02
2023-02-11T19:27:08.563Z,10.80
2023-02-11T19:29:36.655Z,12.38
2023-02-11T19:32:06.843Z,10.48
2023-02-11T19:34:41.090Z,10.13
2023-02-11T19:37:10.906Z,10.70
2023-02-11T19:39:43.796Z,10.38
2023-02-11T19:42:13.269Z,10.85
2023-02-11T19:44:41.328Z,11.07
2023-02-11T19:47:10.401Z,11.63
2023-02-11T19:49:38.426Z,12.57
2023-02-11T19:52:06.557Z,12.70
2023-02-11T19:54:34.898Z,12.75
2023-02-11T19:57:04.798Z,12.55
2023-02-11T19:59:32.926Z,14.18
2023-02-11T20:02:01.783Z,13.10
2023-02-11T20:04:32.226Z,14.18
2023-02-11T20:07:00.742Z,15.48
2023-02-11T20:09:31.230Z,15.52
2023-02-11T20:12:00.113Z,14.63
2023-02-11T20:14:29.577Z,14.95
2023-02-11T20:16:57.906Z,16.00
2023-02-11T20:19:26.989Z,16.48
2023-02-11T20:21:56.242Z,15.55
2023-02-11T20:24:26.976Z,15.63
2023-02-11T20:26:56.344Z,14.10
2023-02-11T20:29:26.168Z,13.90
2023-02-11T20:31:55.983Z,15.00
2023-02-11T20:34:25.424Z,16.20
2023-02-11T20:36:54.222Z,17.10
2023-02-11T20:39:23.666Z,18.40
2023-02-11T20:41:52.484Z,19.77
2023-02-11T20:44:22.850Z,17.92
2023-02-11T20:46:54.059Z,15.50
2023-02-11T20:49:27.156Z,18.58
2023-02-11T20:51:56.895Z,15.90
2023-02-11T20:54:26.551Z,17.73
2023-02-11T20:56:57.030Z,16.08
2023-02-11T20:59:26.601Z,18.38
2023-02-11T21:01:57.414Z,18.23
2023-02-11T21:04:28.433Z,15.95
2023-02-11T21:06:58.701Z,16.27
2023-02-11T21:09:29.123Z,15.98
2023-02-11T21:11:57.291Z,17.30
2023-02-11T21:14:27.175Z,16.45
2023-02-11T21:16:55.641Z,18.08
2023-02-11T21:19:23.761Z,16.08
2023-02-11T21:21:55.231Z,17.20
2023-02-11T21:24:23.834Z,15.70
2023-02-11T21:26:51.882Z,17.15
2023-02-11T21:29:19.963Z,13.82
2023-02-11T21:31:48.269Z,12.98
2023-02-11T21:34:16.924Z,14.50
2023-02-11T21:36:45.878Z,14.63
2023-02-11T21:39:15.283Z,14.43
2023-02-11T21:41:43.572Z,15.35
2023-02-11T21:44:11.744Z,13.77
2023-02-11T21:46:40.030Z,15.02
2023-02-11T21:49:08.131Z,15.13
2023-02-11T21:51:36.429Z,16.95
2023-02-11T21:54:05.197Z,15.32
2023-02-11T21:56:35.528Z,15.38
2023-02-11T21:59:04.464Z,13.98
2023-02-11T22:01:35.288Z,12.55
2023-02-11T22:04:03.942Z,11.35
2023-02-11T22:06:35.227Z,9.48
2023-02-11T22:09:05.608Z,11.88
2023-02-11T22:11:35.280Z,9.65
2023-02-11T22:14:03.572Z,11.48
2023-02-11T22:16:32.368Z,11.98
2023-02-11T22:19:02.417Z,10.15
2023-02-11T22:21:30.929Z,10.75
2023-02-11T22:23:59.027Z,11.70
2023-02-11T22:26:28.332Z,12.38
2023-02-11T22:28:57.663Z,12.80
2023-02-11T22:31:28.003Z,13.18
2023-02-11T22:33:57.287Z,12.32
2023-02-11T22:36:26.829Z,14.70
2023-02-11T22:38:55.583Z,12.85
2023-02-11T22:41:24.080Z,14.23
2023-02-11T22:43:52.061Z,12.50
2023-02-11T22:46:22.163Z,12.30
2023-02-11T22:48:50.569Z,13.55
2023-02-11T22:51:21.044Z,13.85
2023-02-11T22:53:53.236Z,12.07
2023-02-11T22:56:22.534Z,13.88
2023-02-11T22:58:52.174Z,13.10
2023-02-11T23:01:21.885Z,14.38
2023-02-11T23:03:50.309Z,13.60
2023-02-11T23:06:18.773Z,13.27
2023-02-11T23:08:48.193Z,14.55
2023-02-11T23:11:20.468Z,14.10
2023-02-11T23:13:50.106Z,14.13
2023-02-11T23:16:22.657Z,13.27
2023-02-11T23:18:51.863Z,13.57
2023-02-11T23:21:22.201Z,13.00
2023-02-11T23:23:55.500Z,13.18
2023-02-11T23:26:23.682Z,13.13
2023-02-11T23:28:52.210Z,14.20
2023-02-11T23:31:26.833Z,14.50
2023-02-11T23:33:55.552Z,16.75
2023-02-11T23:36:24.446Z,15.38
2023-02-11T23:38:52.738Z,16.42
2023-02-11T23:41:21.623Z,17.38
2023-02-11T23:43:51.593Z,19.30
2023-02-11T23:46:22.097Z,17.77
2023-02-11T23:48:50.970Z,16.65
2023-02-11T23:51:20.113Z,20.13
2023-02-11T23:53:49.335Z,20.05
2023-02-11T23:56:20.067Z,19.67
2023-02-11T23:58:49.711Z,19.75
